map of KGLY home
KGLY - Airport
Location
City:  Clinton, Missouri, United States
Name:Clinton Regional
ICAO:KGLY
FAA LID:GLY

Details
Type:Airport (Airfield)
Use:Public/Civil
Latitude:3821'17"N (38.354700)
Longitude:9340'45"W (-93.679186)
Datum:WGS 1984
Elevation:822 ft (251 m)
Variation:0.97E (WMM2015v2 magnetic declination)
-0.08 annual change
Runways:2
Longest:5000 × 75 ft (1524 × 23 m), paved

Time
Time Zone:UTC-6 (DST-5)
Local Time:

Weather
METAR:KGLY 041355Z AUTO 00000KT 8SM SCT036 OVC045 15/13 A2969 RMK AO2

Related Locations
Nearby:
Farthest:YAUG: 10817 mi / 17409 km
Augusta [Augusta Airport], WA, AU

Find:

   beyond  
but within

Other Information
Maps:
NOTAMs:
Links:
Sources:

  
  • flag of United States
  • flag of Missouri
  

Sectional Chart

Flight Planning
at skyvector.com

Satellite Image

Google Maps Satellite view

 

Copyright © 2004-2019 Karl L. Swartz. All rights reserved.
The Great Circle Mapper name and logo are trademarks of the Great Circle Mapper.
All other trademarks mentioned herein belong to their respective owners.
Please see credits for attibutions and further copyright information.

  Follow gcmap on Facebook Follow gcmap on Twitter GCmap on LinkedIn

hCard Microformat

Geo Microformat